createdAt,value
2023-05-21T00:02:15.961Z,13
2023-05-21T00:14:57.139Z,14
2023-05-21T00:19:26.197Z,15
2023-05-21T00:23:57.701Z,13
2023-05-21T00:29:29.503Z,12
2023-05-21T00:36:44.552Z,12
2023-05-21T00:39:42.495Z,11
2023-05-21T00:45:22.403Z,13
2023-05-21T00:50:40.499Z,13
2023-05-21T00:55:23.892Z,12
2023-05-21T00:57:46.325Z,11
2023-05-21T01:00:43.366Z,13
2023-05-21T01:03:59.106Z,14
2023-05-21T01:06:53.185Z,13
2023-05-21T01:08:01.510Z,14
2023-05-21T01:09:11.864Z,12
2023-05-21T01:10:20.300Z,14
2023-05-21T01:14:07.572Z,11
2023-05-21T01:18:10.142Z,12
2023-05-21T01:34:22.411Z,12
2023-05-21T01:42:16.022Z,11
2023-05-21T01:43:41.698Z,13
2023-05-21T01:54:53.711Z,15
2023-05-21T02:18:57.824Z,12
2023-05-21T02:22:37.838Z,11
2023-05-21T02:28:10.572Z,11
2023-05-21T02:33:46.139Z,13
2023-05-21T02:34:54.016Z,13
2023-05-21T02:36:56.622Z,12
2023-05-21T02:45:45.681Z,12
2023-05-21T02:59:18.114Z,12
2023-05-21T03:02:25.585Z,11
2023-05-21T03:21:06.644Z,13
2023-05-21T03:24:04.579Z,13
2023-05-21T03:26:06.746Z,11
2023-05-21T03:27:39.222Z,13
2023-05-21T03:28:46.499Z,11
2023-05-21T04:05:07.657Z,14
2023-05-21T04:16:42.493Z,13
2023-05-21T04:21:15.304Z,14
2023-05-21T04:37:53.928Z,13
2023-05-21T05:19:11.621Z,13
2023-05-21T05:21:14.142Z,12
2023-05-21T05:26:43.525Z,11
2023-05-21T05:33:48.650Z,13
2023-05-21T05:42:23.199Z,12
2023-05-21T05:47:51.900Z,10
2023-05-21T05:58:35.852Z,11
2023-05-21T06:00:29.338Z,11
2023-05-21T06:01:41.886Z,11
2023-05-21T06:02:51.852Z,14
2023-05-21T06:04:29.273Z,11
2023-05-21T06:06:04.241Z,12
2023-05-21T06:09:12.084Z,12
2023-05-21T06:11:11.151Z,10
2023-05-21T06:19:16.677Z,12
2023-05-21T06:20:44.961Z,13
2023-05-21T06:27:18.946Z,9
2023-05-21T06:28:28.756Z,10
2023-05-21T06:32:31.912Z,10
2023-05-21T06:33:57.558Z,10
2023-05-21T06:35:17.139Z,11
2023-05-21T06:36:36.372Z,11
2023-05-21T06:37:48.771Z,10
2023-05-21T06:39:06.655Z,12
2023-05-21T06:40:19.491Z,10
2023-05-21T06:41:41.357Z,11
2023-05-21T06:42:48.377Z,12
2023-05-21T06:43:55.446Z,12
2023-05-21T06:45:27.360Z,10
2023-05-21T06:46:34.551Z,10
2023-05-21T06:47:48.038Z,10
2023-05-21T06:49:03.629Z,10
2023-05-21T06:50:10.852Z,10
2023-05-21T06:53:26.357Z,10
2023-05-21T06:54:31.492Z,10
2023-05-21T06:55:46.629Z,10
2023-05-21T06:56:51.774Z,10
2023-05-21T06:57:57.250Z,10
2023-05-21T06:59:07.738Z,10
2023-05-21T07:00:17.957Z,10
2023-05-21T07:01:37.114Z,10
2023-05-21T07:02:49.847Z,10
2023-05-21T07:03:54.950Z,10
2023-05-21T07:05:06.709Z,10
2023-05-21T07:06:41.682Z,10
2023-05-21T07:07:53.997Z,10
2023-05-21T07:09:15.873Z,10
2023-05-21T07:11:23.903Z,10
2023-05-21T07:12:46.997Z,10
2023-05-21T07:14:18.184Z,10
2023-05-21T07:15:33.657Z,10
2023-05-21T07:17:04.066Z,10
2023-05-21T07:18:12.270Z,10
2023-05-21T07:19:19.707Z,10
2023-05-21T07:23:32.514Z,10
2023-05-21T07:25:14.896Z,10
2023-05-21T07:26:32.218Z,10
2023-05-21T07:28:16.613Z,10
2023-05-21T07:29:21.747Z,10
2023-05-21T07:31:25.454Z,10
2023-05-21T07:32:31.613Z,10
2023-05-21T07:33:41.730Z,10
2023-05-21T07:34:46.699Z,10
2023-05-21T07:36:04.909Z,10
2023-05-21T07:37:12.120Z,10
2023-05-21T07:38:39.874Z,10
2023-05-21T07:39:56.164Z,10
2023-05-21T07:41:16.518Z,10
2023-05-21T07:42:25.153Z,10
2023-05-21T07:43:30.314Z,10
2023-05-21T07:44:40.744Z,10
2023-05-21T07:45:45.838Z,10
2023-05-21T07:47:02.887Z,10
2023-05-21T07:48:08.054Z,10
2023-05-21T07:49:30.958Z,10
2023-05-21T07:51:03.184Z,10
2023-05-21T07:52:11.560Z,10
2023-05-21T07:53:16.533Z,10
2023-05-21T07:54:21.473Z,10
2023-05-21T07:55:37.671Z,10
2023-05-21T07:56:43.749Z,10
2023-05-21T07:57:53.686Z,10
2023-05-21T07:58:59.128Z,10
2023-05-21T08:00:04.152Z,10
2023-05-21T08:01:11.946Z,10
2023-05-21T08:02:19.871Z,10
2023-05-21T08:03:24.918Z,10
2023-05-21T08:04:33.308Z,10
2023-05-21T08:05:40.434Z,10
2023-05-21T08:06:50.435Z,10
2023-05-21T08:07:56.498Z,10
2023-05-21T08:09:01.497Z,10
2023-05-21T08:10:06.508Z,10
2023-05-21T08:11:11.961Z,10
2023-05-21T08:12:16.978Z,10
2023-05-21T08:13:24.952Z,10
2023-05-21T08:14:31.191Z,10
2023-05-21T08:15:36.408Z,10
2023-05-21T08:16:42.294Z,10
2023-05-21T08:17:47.412Z,10
2023-05-21T08:19:05.493Z,10
2023-05-21T08:20:10.553Z,10
2023-05-21T08:21:15.791Z,10
2023-05-21T08:22:25.831Z,10
2023-05-21T08:23:30.841Z,10
2023-05-21T08:24:36.015Z,10
2023-05-21T08:25:41.585Z,10
2023-05-21T08:26:47.594Z,10
2023-05-21T08:27:54.197Z,10
2023-05-21T08:28:59.733Z,10
2023-05-21T08:30:11.777Z,10
2023-05-21T08:31:17.239Z,10
2023-05-21T08:32:22.225Z,10
2023-05-21T08:33:30.026Z,10
2023-05-21T08:34:39.955Z,10
2023-05-21T08:35:44.983Z,10
2023-05-21T08:37:05.052Z,10
2023-05-21T08:38:11.060Z,10
2023-05-21T08:39:16.309Z,10
2023-05-21T08:40:21.341Z,10
2023-05-21T08:41:28.307Z,10
2023-05-21T08:42:37.237Z,10
2023-05-21T08:43:44.888Z,10
2023-05-21T08:44:54.775Z,10
2023-05-21T08:45:59.869Z,10
2023-05-21T08:47:06.367Z,10
2023-05-21T08:48:13.386Z,10
2023-05-21T08:49:20.385Z,10
2023-05-21T08:50:25.684Z,10
2023-05-21T08:51:31.248Z,10
2023-05-21T08:52:36.302Z,10
2023-05-21T08:53:42.541Z,10
2023-05-21T08:54:49.572Z,10
2023-05-21T08:55:54.539Z,10
2023-05-21T08:57:09.597Z,10
2023-05-21T08:58:15.063Z,10
2023-05-21T08:59:20.202Z,10
2023-05-21T09:00:28.388Z,10
2023-05-21T09:01:34.307Z,10
2023-05-21T09:02:39.335Z,10
2023-05-21T09:03:47.509Z,10
2023-05-21T09:04:54.601Z,10
2023-05-21T09:06:04.779Z,10
2023-05-21T09:07:17.931Z,10
2023-05-21T09:08:33.134Z,10
2023-05-21T09:09:41.051Z,10
2023-05-21T09:10:49.178Z,10
2023-05-21T09:11:54.350Z,10
2023-05-21T09:12:59.436Z,10
2023-05-21T09:14:04.437Z,10
2023-05-21T09:15:09.580Z,10
2023-05-21T09:17:08.493Z,10
2023-05-21T09:18:16.573Z,10
2023-05-21T09:20:18.760Z,10
2023-05-21T09:21:26.931Z,10
2023-05-21T09:24:20.828Z,10
2023-05-21T09:26:08.743Z,10
2023-05-21T09:28:01.771Z,10
2023-05-21T09:29:24.737Z,10
2023-05-21T09:30:31.253Z,10
2023-05-21T09:32:33.195Z,10
2023-05-21T09:34:24.111Z,10
2023-05-21T09:46:51.837Z,10
2023-05-21T09:48:40.740Z,10
2023-05-21T10:09:22.893Z,10
2023-05-21T10:31:12.141Z,10
2023-05-21T10:32:17.626Z,10
2023-05-21T10:33:22.951Z,10
2023-05-21T10:34:31.765Z,10
2023-05-21T10:35:39.699Z,10
2023-05-21T10:42:02.637Z,10
2023-05-21T10:47:54.518Z,10
2023-05-21T10:49:11.760Z,10
2023-05-21T10:50:19.569Z,10
2023-05-21T10:51:36.662Z,10
2023-05-21T10:57:25.200Z,10
2023-05-21T11:06:40.180Z,10
2023-05-21T11:08:39.350Z,10
2023-05-21T11:09:45.345Z,10
2023-05-21T11:14:40.859Z,10
2023-05-21T11:16:39.360Z,10
2023-05-21T11:21:42.256Z,5
2023-05-21T11:23:56.428Z,6
2023-05-21T11:29:00.291Z,7
2023-05-21T11:30:07.554Z,5
2023-05-21T11:35:43.335Z,6
2023-05-21T11:38:39.371Z,6
2023-05-21T11:39:46.632Z,5
2023-05-21T11:40:58.026Z,6
2023-05-21T11:42:31.420Z,6
2023-05-21T12:07:50.442Z,6
2023-05-21T12:10:41.673Z,6
2023-05-21T12:12:00.478Z,6
2023-05-21T12:13:18.528Z,6
2023-05-21T12:14:25.652Z,6
2023-05-21T12:16:24.703Z,5
2023-05-21T12:17:34.637Z,6
2023-05-21T12:19:37.898Z,6
2023-05-21T12:20:44.946Z,5
2023-05-21T12:21:53.061Z,5
2023-05-21T12:23:00.095Z,6
2023-05-21T12:24:07.091Z,5
2023-05-21T12:25:42.192Z,6
2023-05-21T12:26:50.189Z,5
2023-05-21T12:28:05.536Z,5
2023-05-21T12:29:14.009Z,5
2023-05-21T12:30:21.247Z,6
2023-05-21T12:31:29.221Z,5
2023-05-21T12:32:36.279Z,5
2023-05-21T12:33:43.322Z,7
2023-05-21T12:34:52.107Z,6
2023-05-21T12:36:02.218Z,4
2023-05-21T12:37:09.532Z,6
2023-05-21T12:38:25.894Z,5
2023-05-21T12:39:37.656Z,5
2023-05-21T12:40:49.779Z,7
2023-05-21T12:41:58.700Z,6
2023-05-21T12:43:13.453Z,6
2023-05-21T12:44:20.957Z,5
2023-05-21T12:45:28.002Z,6
2023-05-21T12:46:35.582Z,6
2023-05-21T12:47:42.392Z,5
2023-05-21T12:48:54.277Z,6
2023-05-21T12:50:04.456Z,7
2023-05-21T12:51:11.765Z,5
2023-05-21T12:52:23.523Z,6
2023-05-21T12:53:30.575Z,5
2023-05-21T12:54:40.314Z,5
2023-05-21T12:56:02.888Z,4
2023-05-21T12:57:19.141Z,6
2023-05-21T12:58:28.897Z,6
2023-05-21T12:59:36.037Z,5
2023-05-21T13:00:53.901Z,7
2023-05-21T13:02:00.808Z,6
2023-05-21T13:03:13.730Z,7
2023-05-21T13:04:22.515Z,6
2023-05-21T13:05:37.086Z,5
2023-05-21T13:06:47.054Z,8
2023-05-21T13:08:12.423Z,6
2023-05-21T13:09:25.593Z,6
2023-05-21T13:10:32.428Z,5
2023-05-21T13:11:50.093Z,7
2023-05-21T13:12:58.402Z,10
2023-05-21T13:14:16.129Z,6
2023-05-21T13:15:24.020Z,8
2023-05-21T13:16:30.924Z,4
2023-05-21T13:17:52.511Z,6
2023-05-21T13:18:58.979Z,5
2023-05-21T13:20:15.735Z,5
2023-05-21T13:21:28.574Z,8
2023-05-21T13:22:52.738Z,7
2023-05-21T13:24:09.871Z,12
2023-05-21T13:27:29.072Z,6
2023-05-21T13:28:47.641Z,7
2023-05-21T13:30:00.382Z,7
2023-05-21T13:31:17.238Z,8
2023-05-21T13:32:29.079Z,6
2023-05-21T13:33:41.928Z,7
2023-05-21T13:35:04.311Z,7
2023-05-21T13:36:12.739Z,4
2023-05-21T13:37:19.688Z,5
2023-05-21T13:38:30.018Z,6
2023-05-21T13:39:36.971Z,5
2023-05-21T13:40:46.032Z,6
2023-05-21T13:41:56.321Z,7
2023-05-21T13:43:04.389Z,7
2023-05-21T13:44:11.295Z,6
2023-05-21T13:45:18.616Z,8
2023-05-21T13:46:39.877Z,6
2023-05-21T13:47:46.925Z,6
2023-05-21T13:49:09.331Z,6
2023-05-21T13:50:28.002Z,5
2023-05-21T13:51:58.312Z,5
2023-05-21T13:53:05.257Z,7
2023-05-21T13:54:12.236Z,6
2023-05-21T13:55:19.081Z,9
2023-05-21T13:56:25.986Z,7
2023-05-21T13:57:35.006Z,6
2023-05-21T13:58:41.981Z,5
2023-05-21T13:59:50.886Z,5
2023-05-21T14:01:02.779Z,8
2023-05-21T14:02:09.540Z,6
2023-05-21T14:03:17.464Z,5
2023-05-21T14:04:24.348Z,7
2023-05-21T14:05:31.226Z,9
2023-05-21T14:06:43.034Z,6
2023-05-21T14:07:50.039Z,7
2023-05-21T14:08:58.971Z,8
2023-05-21T14:10:23.304Z,5
2023-05-21T14:11:41.910Z,8
2023-05-21T14:12:52.352Z,7
2023-05-21T14:14:38.047Z,7
2023-05-21T14:15:49.704Z,7
2023-05-21T14:17:01.430Z,6
2023-05-21T14:18:08.473Z,6
2023-05-21T14:19:20.256Z,6
2023-05-21T14:20:27.046Z,5
2023-05-21T14:21:35.025Z,5
2023-05-21T14:22:57.563Z,5
2023-05-21T14:24:11.307Z,7
2023-05-21T14:25:18.307Z,6
2023-05-21T14:26:57.289Z,6
2023-05-21T14:28:04.222Z,7
2023-05-21T14:29:16.937Z,6
2023-05-21T14:30:43.274Z,6
2023-05-21T14:31:52.129Z,6
2023-05-21T14:33:00.977Z,8
2023-05-21T14:34:46.644Z,8
2023-05-21T14:35:53.621Z,5
2023-05-21T14:37:34.428Z,5
2023-05-21T14:38:54.087Z,6
2023-05-21T14:40:01.713Z,7
2023-05-21T14:41:38.156Z,7
2023-05-21T14:43:14.167Z,7
2023-05-21T14:44:33.708Z,6
2023-05-21T14:45:41.432Z,7
2023-05-21T14:46:48.228Z,7
2023-05-21T14:48:10.739Z,5
2023-05-21T14:49:17.594Z,8
2023-05-21T14:50:24.389Z,5
2023-05-21T14:51:54.810Z,5
2023-05-21T14:53:02.027Z,7
2023-05-21T16:30:21.240Z,9
2023-05-21T16:46:22.874Z,5
2023-05-21T16:47:37.191Z,6
2023-05-21T16:49:25.701Z,6
2023-05-21T16:50:33.246Z,8
2023-05-21T16:51:40.298Z,7
2023-05-21T16:52:48.056Z,6
2023-05-21T16:53:57.435Z,8
2023-05-21T16:55:07.990Z,6
2023-05-21T16:56:15.180Z,7
2023-05-21T16:57:29.558Z,7
2023-05-21T16:59:00.148Z,4
2023-05-21T17:00:07.048Z,5
2023-05-21T17:01:41.411Z,6
2023-05-21T17:03:02.069Z,6
2023-05-21T17:04:58.938Z,6
2023-05-21T17:06:35.300Z,8
2023-05-21T17:09:08.995Z,6
2023-05-21T17:10:16.070Z,5
2023-05-21T17:11:23.082Z,7
2023-05-21T17:12:32.048Z,9
2023-05-21T17:14:10.838Z,5
2023-05-21T17:15:17.494Z,5
2023-05-21T17:16:24.565Z,7
2023-05-21T17:17:51.964Z,7
2023-05-21T17:19:39.381Z,7
2023-05-21T17:21:23.305Z,7
2023-05-21T17:22:38.969Z,5
2023-05-21T17:23:46.728Z,7
2023-05-21T17:27:11.118Z,7
2023-05-21T17:28:33.159Z,6
2023-05-21T17:33:09.162Z,7
2023-05-21T17:34:16.191Z,8
2023-05-21T17:36:07.636Z,6
2023-05-21T17:37:37.990Z,5
2023-05-21T17:38:56.133Z,9
2023-05-21T17:40:04.268Z,6
2023-05-21T17:41:14.794Z,8
2023-05-21T17:42:24.412Z,5
2023-05-21T17:43:37.674Z,6
2023-05-21T17:45:25.749Z,7
2023-05-21T17:46:36.211Z,6
2023-05-21T17:47:57.280Z,7
2023-05-21T17:49:29.077Z,7
2023-05-21T17:50:36.778Z,8
2023-05-21T17:51:52.982Z,6
2023-05-21T17:53:09.810Z,8
2023-05-21T17:54:16.857Z,7
2023-05-21T17:55:24.033Z,6
2023-05-21T17:57:01.849Z,6
2023-05-21T17:59:05.630Z,9
2023-05-21T18:00:12.665Z,9
2023-05-21T18:01:26.709Z,6
2023-05-21T18:04:52.228Z,8
2023-05-21T18:06:16.812Z,7
2023-05-21T18:07:31.926Z,7
2023-05-21T18:09:08.141Z,7
2023-05-21T18:10:28.586Z,7
2023-05-21T18:11:39.220Z,7
2023-05-21T18:12:55.789Z,6
2023-05-21T18:14:14.267Z,6
2023-05-21T18:18:12.332Z,7
2023-05-21T18:19:19.336Z,6
2023-05-21T18:20:26.398Z,6
2023-05-21T18:24:24.466Z,5
2023-05-21T18:25:37.111Z,6
2023-05-21T18:26:45.066Z,8
2023-05-21T18:27:52.055Z,7
2023-05-21T18:29:01.741Z,6
2023-05-21T18:30:09.873Z,5
2023-05-21T18:31:21.815Z,8
2023-05-21T18:33:48.088Z,6
2023-05-21T18:34:55.064Z,6
2023-05-21T18:38:42.805Z,7
2023-05-21T18:39:50.712Z,7
2023-05-21T18:41:05.515Z,8
2023-05-21T18:43:06.838Z,8
2023-05-21T18:44:28.509Z,7
2023-05-21T18:51:57.004Z,6
2023-05-21T18:56:32.571Z,7
2023-05-21T19:15:13.453Z,10
2023-05-21T19:17:42.831Z,8
2023-05-21T19:27:09.539Z,7
2023-05-21T19:28:16.695Z,9
2023-05-21T19:29:24.383Z,7
2023-05-21T19:34:55.885Z,7
2023-05-21T19:36:15.417Z,7
2023-05-21T19:37:51.486Z,7
2023-05-21T19:43:14.030Z,10
2023-05-21T19:54:56.966Z,8
2023-05-21T19:58:01.063Z,12
2023-05-21T20:00:43.271Z,9
2023-05-21T20:01:59.800Z,8
2023-05-21T20:11:16.230Z,9
2023-05-21T20:12:28.105Z,13
2023-05-21T20:13:37.864Z,9
2023-05-21T20:14:44.873Z,8
2023-05-21T20:15:52.469Z,7
2023-05-21T20:17:02.634Z,8
2023-05-21T20:18:10.115Z,9
2023-05-21T20:19:48.286Z,9
2023-05-21T20:22:17.046Z,7
2023-05-21T20:23:27.170Z,8
2023-05-21T20:25:17.903Z,8
2023-05-21T20:26:25.766Z,8
2023-05-21T20:27:32.721Z,8
2023-05-21T20:28:48.417Z,11
2023-05-21T20:29:55.393Z,8
2023-05-21T20:31:02.529Z,9
2023-05-21T20:32:11.945Z,8
2023-05-21T20:33:19.116Z,9
2023-05-21T20:34:26.422Z,8
2023-05-21T20:35:35.451Z,7
2023-05-21T20:36:43.259Z,7
2023-05-21T20:37:51.156Z,6
2023-05-21T20:39:09.468Z,8
2023-05-21T20:40:19.184Z,6
2023-05-21T20:41:32.657Z,6
2023-05-21T20:43:11.236Z,7
2023-05-21T20:44:21.628Z,7
2023-05-21T20:46:03.829Z,8
2023-05-21T20:47:10.875Z,6
2023-05-21T20:48:28.488Z,7
2023-05-21T20:49:38.699Z,8
2023-05-21T20:50:46.033Z,7
2023-05-21T20:52:10.456Z,8
2023-05-21T20:54:31.482Z,8
2023-05-21T20:56:33.936Z,8
2023-05-21T20:57:32.453Z,9
2023-05-21T20:58:50.947Z,9
2023-05-21T21:00:27.673Z,6
2023-05-21T21:01:39.649Z,7
2023-05-21T21:03:03.110Z,6
2023-05-21T21:04:16.873Z,8
2023-05-21T21:05:23.816Z,8
2023-05-21T21:06:30.715Z,9
2023-05-21T21:08:00.067Z,9
2023-05-21T21:09:10.876Z,8
2023-05-21T21:10:17.955Z,7
2023-05-21T21:11:27.855Z,8
2023-05-21T21:12:40.619Z,8
2023-05-21T21:13:47.759Z,8
2023-05-21T21:15:02.610Z,7
2023-05-21T21:16:27.569Z,8
2023-05-21T21:17:37.670Z,7
2023-05-21T21:18:44.915Z,7
2023-05-21T21:19:53.741Z,7
2023-05-21T21:21:04.206Z,9
2023-05-21T21:22:16.817Z,9
2023-05-21T21:23:29.878Z,9
2023-05-21T21:24:57.169Z,10
2023-05-21T21:26:08.327Z,9
2023-05-21T21:27:15.370Z,7
2023-05-21T21:28:28.528Z,7
2023-05-21T21:29:37.701Z,8
2023-05-21T21:30:54.978Z,7
2023-05-21T21:32:01.974Z,7
2023-05-21T21:33:15.478Z,8
2023-05-21T21:34:30.507Z,6
2023-05-21T21:35:41.610Z,7
2023-05-21T21:36:52.101Z,6
2023-05-21T21:38:10.255Z,6
2023-05-21T21:39:21.862Z,6
2023-05-21T21:40:29.194Z,6
2023-05-21T21:41:48.340Z,8
2023-05-21T21:42:55.290Z,8
2023-05-21T21:44:06.210Z,8
2023-05-21T21:45:18.117Z,8
2023-05-21T21:46:32.958Z,7
2023-05-21T21:47:47.131Z,8
2023-05-21T21:48:57.196Z,7
2023-05-21T21:50:17.908Z,7
2023-05-21T21:51:33.461Z,7
2023-05-21T21:52:43.504Z,7
2023-05-21T21:54:16.799Z,7
2023-05-21T21:55:39.297Z,7
2023-05-21T21:56:49.995Z,6
2023-05-21T21:58:00.276Z,6
2023-05-21T21:59:28.972Z,7
2023-05-21T22:00:41.846Z,7
2023-05-21T22:01:50.959Z,8
2023-05-21T22:03:00.686Z,8
2023-05-21T22:04:11.788Z,7
2023-05-21T22:05:30.713Z,8
2023-05-21T22:06:43.013Z,7
2023-05-21T22:07:53.000Z,8
2023-05-21T22:09:01.283Z,8
2023-05-21T22:10:11.008Z,7
2023-05-21T22:11:17.903Z,7
2023-05-21T22:12:28.225Z,8
2023-05-21T22:13:42.225Z,8
2023-05-21T22:15:04.715Z,10
2023-05-21T22:16:15.769Z,6
2023-05-21T22:17:26.446Z,8
2023-05-21T22:18:41.150Z,8
2023-05-21T22:19:50.030Z,6
2023-05-21T22:20:59.605Z,9
2023-05-21T22:22:10.292Z,6
2023-05-21T22:23:17.592Z,6
2023-05-21T22:24:31.847Z,6
2023-05-21T22:25:43.774Z,6
2023-05-21T22:26:54.224Z,7
2023-05-21T22:28:01.235Z,7
2023-05-21T22:29:08.506Z,7
2023-05-21T22:30:18.389Z,8
2023-05-21T22:31:28.653Z,8
2023-05-21T22:32:40.078Z,6
2023-05-21T22:33:48.107Z,8
2023-05-21T22:34:58.152Z,7
2023-05-21T22:36:05.372Z,6
2023-05-21T22:37:19.350Z,7
2023-05-21T22:38:28.224Z,7
2023-05-21T22:39:36.986Z,7
2023-05-21T22:40:43.986Z,7
2023-05-21T22:41:54.514Z,9
2023-05-21T22:43:01.500Z,6
2023-05-21T22:44:08.352Z,9
2023-05-21T22:45:15.596Z,9
2023-05-21T22:46:26.180Z,6
2023-05-21T22:47:35.444Z,7
2023-05-21T22:48:45.995Z,7
2023-05-21T22:50:02.992Z,7
2023-05-21T22:51:10.011Z,6
2023-05-21T22:52:17.016Z,8
2023-05-21T22:53:34.867Z,8
2023-05-21T22:54:45.588Z,7
2023-05-21T22:55:52.563Z,8
2023-05-21T22:57:00.041Z,6
2023-05-21T22:58:08.040Z,8
2023-05-21T22:59:15.013Z,6
2023-05-21T23:00:22.023Z,7
2023-05-21T23:01:29.259Z,6
2023-05-21T23:02:38.281Z,7
2023-05-21T23:03:56.923Z,7
2023-05-21T23:05:04.640Z,7
2023-05-21T23:06:11.729Z,7
2023-05-21T23:07:19.175Z,6
2023-05-21T23:08:26.418Z,7
2023-05-21T23:09:33.363Z,9
2023-05-21T23:10:47.328Z,7
2023-05-21T23:11:56.479Z,8
2023-05-21T23:13:20.992Z,6
2023-05-21T23:14:28.500Z,8
2023-05-21T23:15:37.574Z,6
2023-05-21T23:16:44.612Z,7
2023-05-21T23:17:51.577Z,7
2023-05-21T23:18:59.154Z,7
2023-05-21T23:20:10.835Z,8
2023-05-21T23:21:18.488Z,6
2023-05-21T23:22:26.661Z,7
2023-05-21T23:23:36.362Z,7
2023-05-21T23:24:43.323Z,7
2023-05-21T23:25:51.279Z,7
2023-05-21T23:27:02.143Z,6
2023-05-21T23:28:08.990Z,6
2023-05-21T23:29:16.902Z,7
2023-05-21T23:31:41.921Z,8
2023-05-21T23:32:49.019Z,6
2023-05-21T23:34:00.531Z,7
2023-05-21T23:35:07.927Z,7
2023-05-21T23:36:15.688Z,8
2023-05-21T23:37:22.726Z,9
2023-05-21T23:38:34.841Z,8
2023-05-21T23:39:41.997Z,9
2023-05-21T23:40:55.629Z,7
2023-05-21T23:42:05.449Z,8
2023-05-21T23:43:12.464Z,8
2023-05-21T23:44:20.387Z,6
2023-05-21T23:45:30.782Z,7
2023-05-21T23:46:37.794Z,7
2023-05-21T23:47:47.580Z,9
2023-05-21T23:48:54.786Z,8
2023-05-21T23:49:59.578Z,8
2023-05-21T23:51:09.806Z,6
2023-05-21T23:52:17.467Z,7
2023-05-21T23:53:25.002Z,6
2023-05-21T23:54:32.025Z,7
2023-05-21T23:55:39.036Z,6
2023-05-21T23:56:48.825Z,5
2023-05-21T23:57:55.755Z,7
2023-05-21T23:59:03.228Z,6
